Time;durP1;ratioP1;P1;durP2;ratioP2;P2;SDS_P1;SDS_P2;PMS_P1;PMS_P2;Temp;Humidity;BMP_temperature;BMP_pressure;BME280_temperature;BME280_humidity;BME280_pressure;Samples;Min_cycle;Max_cycle;Signal;HPM_P1;HPM_P2
2022/05/25 00:00:44;;;;;;;6.07;2.97;;;18.00;90.60;;;;;;5044907;28;20493;-75
2022/05/25 00:03:10;;;;;;;4.20;2.65;;;18.00;90.70;;;;;;5060234;28;20043;-75
2022/05/25 00:05:36;;;;;;;4.22;2.30;;;18.00;90.60;;;;;;5081183;28;20142;-75
2022/05/25 00:08:02;;;;;;;4.82;2.60;;;18.00;90.60;;;;;;5064285;28;20032;-76
2022/05/25 00:10:28;;;;;;;4.43;2.47;;;18.00;90.50;;;;;;5064776;28;20036;-75
2022/05/25 00:12:53;;;;;;;3.55;2.38;;;18.10;90.50;;;;;;5065412;28;20478;-75
2022/05/25 00:15:19;;;;;;;4.03;2.40;;;18.10;90.40;;;;;;5064324;28;20028;-74
2022/05/25 00:17:44;;;;;;;4.75;2.80;;;18.10;90.40;;;;;;5065343;28;20021;-74
2022/05/25 00:20:11;;;;;;;3.70;2.35;;;18.10;90.40;;;;;;5064445;28;20032;-75
2022/05/25 00:22:45;;;;;;;3.40;2.35;;;18.10;90.30;;;;;;5064375;28;20119;-74
2022/05/25 00:25:15;;;;;;;4.43;2.70;;;18.10;90.40;;;;;;5031225;28;20040;-75
2022/05/25 00:27:41;;;;;;;4.15;2.70;;;18.10;90.40;;;;;;5044467;28;20021;-75
2022/05/25 00:30:07;;;;;;;4.78;2.92;;;18.00;90.50;;;;;;5026645;28;20490;-75
2022/05/25 00:32:33;;;;;;;4.25;2.83;;;18.20;90.60;;;;;;5040892;28;20580;-74
2022/05/25 00:34:59;;;;;;;5.10;3.20;;;18.00;90.50;;;;;;5028216;28;20694;-75
2022/05/25 00:37:24;;;;;;;5.03;3.10;;;18.00;90.60;;;;;;5064306;28;20040;-74
2022/05/25 00:39:50;;;;;;;4.05;2.60;;;18.00;90.60;;;;;;5064973;28;20446;-74
2022/05/25 00:42:16;;;;;;;4.47;2.72;;;18.00;90.70;;;;;;5065239;28;20524;-75
2022/05/25 00:44:42;;;;;;;5.10;2.72;;;18.00;90.70;;;;;;5063290;28;20081;-75
2022/05/25 00:47:09;;;;;;;4.75;2.75;;;18.00;90.70;;;;;;5065020;28;20024;-75
2022/05/25 00:49:36;;;;;;;3.53;2.45;;;18.00;90.70;;;;;;5065031;28;20496;-75
2022/05/25 00:52:07;;;;;;;4.32;2.60;;;18.00;90.60;;;;;;5063918;28;20052;-75
2022/05/25 00:54:37;;;;;;;3.83;2.28;;;18.00;90.60;;;;;;5046239;28;20029;-75
2022/05/25 00:57:09;;;;;;;4.47;2.30;;;18.00;90.60;;;;;;5052343;28;20035;-75
2022/05/25 00:59:59;;;;;;;4.05;2.33;;;18.00;90.60;;;;;;5064931;28;20035;-75
2022/05/25 01:02:28;;;;;;;3.70;2.45;;;18.00;90.70;;;;;;5064999;28;20072;-75
2022/05/25 01:04:53;;;;;;;3.55;2.38;;;18.00;90.60;;;;;;5064868;28;20556;-75
2022/05/25 01:07:52;;;;;;;4.30;2.30;;;18.00;90.60;;;;;;5064937;28;20131;-75
2022/05/25 01:10:55;;;;;;;4.15;2.50;;;18.00;90.50;;;;;;5062967;28;20400;-74
2022/05/25 01:13:30;;;;;;;4.97;2.80;;;18.10;90.40;;;;;;5064003;28;20113;-73
2022/05/25 01:16:25;;;;;;;3.35;2.30;;;18.10;90.40;;;;;;5064816;28;20389;-75
2022/05/25 01:19:24;;;;;;;3.47;2.40;;;18.10;90.40;;;;;;5063098;28;20017;-75
2022/05/25 01:22:05;;;;;;;4.70;2.80;;;18.00;90.30;;;;;;5063230;28;20035;-74
2022/05/25 01:24:51;;;;;;;4.43;2.63;;;18.00;90.40;;;;;;5063303;28;20020;-73
2022/05/25 01:27:37;;;;;;;3.67;2.25;;;18.00;90.50;;;;;;5063469;28;20045;-74
2022/05/25 01:30:08;;;;;;;4.72;3.00;;;18.00;90.50;;;;;;5064881;28;20056;-73
2022/05/25 01:33:07;;;;;;;3.30;2.05;;;18.00;90.60;;;;;;5064677;28;20035;-74
2022/05/25 01:35:51;;;;;;;4.75;3.05;;;18.00;90.60;;;;;;5063278;28;20025;-74
2022/05/25 01:38:29;;;;;;;4.88;3.08;;;18.00;90.60;;;;;;5063352;28;20115;-74
2022/05/25 01:41:24;;;;;;;4.10;2.47;;;17.90;90.60;;;;;;5066976;28;20020;-74
2022/05/25 01:43:57;;;;;;;3.80;2.50;;;17.90;90.60;;;;;;5066805;28;20031;-74
2022/05/25 01:46:29;;;;;;;4.93;2.13;;;17.90;90.70;;;;;;5068606;28;20021;-74
2022/05/25 01:48:56;;;;;;;4.90;2.78;;;17.90;90.70;;;;;;5067366;28;20111;-73
2022/05/25 01:51:27;;;;;;;3.83;2.25;;;17.90;90.70;;;;;;5067424;28;20270;-73
2022/05/25 01:53:58;;;;;;;3.25;2.25;;;17.90;90.60;;;;;;5067561;28;20124;-74
2022/05/25 01:56:25;;;;;;;3.58;2.40;;;17.90;90.60;;;;;;5068337;28;20025;-74
2022/05/25 01:58:56;;;;;;;4.70;2.40;;;17.90;90.60;;;;;;5068184;28;20090;-74
2022/05/25 02:01:22;;;;;;;3.60;2.20;;;17.90;90.70;;;;;;5067620;28;20455;-74
2022/05/25 02:07:12;;;;;;;3.35;2.22;;;18.00;90.60;;;;;;5068250;28;20051;-74
2022/05/25 02:10:12;;;;;;;3.22;2.22;;;18.00;90.50;;;;;;5033916;28;20559;-74
2022/05/25 02:13:14;;;;;;;3.95;2.50;;;18.00;90.40;;;;;;5043469;28;20034;-74
2022/05/25 02:15:47;;;;;;;3.83;2.30;;;18.00;90.40;;;;;;5059931;28;20020;-74
2022/05/25 02:18:36;;;;;;;3.95;2.55;;;18.00;90.30;;;;;;5066363;28;20020;-75
2022/05/25 02:21:32;;;;;;;4.03;2.47;;;18.00;90.30;;;;;;5067634;28;20016;-74
2022/05/25 02:24:13;;;;;;;5.25;2.80;;;18.00;90.30;;;;;;5067643;28;20110;-74
2022/05/25 02:27:04;;;;;;;4.43;2.47;;;18.00;90.40;;;;;;5066248;28;20035;-74
2022/05/25 02:29:37;;;;;;;3.42;2.00;;;18.00;90.50;;;;;;5065208;28;20044;-73
2022/05/25 02:32:36;;;;;;;5.50;2.50;;;17.90;90.60;;;;;;5067730;28;20036;-74
2022/05/25 02:35:02;;;;;;;3.93;2.57;;;17.90;90.60;;;;;;5034625;28;20036;-73
2022/05/25 02:37:30;;;;;;;4.50;2.83;;;17.90;90.60;;;;;;5067138;28;20028;-74
2022/05/25 02:39:58;;;;;;;3.97;2.35;;;17.90;90.70;;;;;;5042777;28;20024;-73
2022/05/25 02:42:24;;;;;;;3.97;2.47;;;17.90;90.70;;;;;;5045703;28;20025;-74
2022/05/25 02:44:51;;;;;;;5.03;2.80;;;17.90;90.70;;;;;;5050709;28;20036;-74
2022/05/25 02:47:16;;;;;;;4.50;2.83;;;17.90;90.70;;;;;;5066074;28;20029;-74
2022/05/25 02:49:42;;;;;;;3.85;2.40;;;17.90;90.70;;;;;;5065303;28;20442;-73
2022/05/25 02:52:09;;;;;;;4.38;2.58;;;17.90;90.60;;;;;;5066177;28;20036;-73
2022/05/25 02:54:35;;;;;;;4.35;2.40;;;17.90;90.60;;;;;;5066622;28;20029;-74
2022/05/25 02:57:01;;;;;;;3.80;2.60;;;17.90;90.60;;;;;;5065853;28;20078;-74
2022/05/25 02:59:26;;;;;;;3.60;2.40;;;17.90;90.70;;;;;;5065700;28;20029;-74
2022/05/25 03:01:52;;;;;;;4.05;2.33;;;17.90;90.60;;;;;;5065559;28;20025;-74
2022/05/25 03:04:17;;;;;;;3.90;2.63;;;17.90;90.60;;;;;;5068062;28;20044;-74
2022/05/25 03:06:43;;;;;;;3.97;2.50;;;17.90;90.50;;;;;;5045718;28;20036;-74
2022/05/25 03:09:09;;;;;;;3.83;2.47;;;18.00;90.50;;;;;;5045789;28;20497;-75
2022/05/25 03:11:34;;;;;;;4.78;2.50;;;18.00;90.40;;;;;;5046947;28;20979;-73
2022/05/25 03:14:00;;;;;;;4.30;2.80;;;18.00;90.30;;;;;;5055559;28;20139;-73
2022/05/25 03:16:25;;;;;;;3.83;2.35;;;18.00;90.30;;;;;;5066046;28;20097;-73
2022/05/25 03:18:51;;;;;;;4.63;2.70;;;18.00;90.30;;;;;;5066452;28;20059;-74
2022/05/25 03:21:20;;;;;;;3.72;2.50;;;18.00;90.30;;;;;;5065350;28;20063;-73
2022/05/25 03:23:46;;;;;;;3.42;2.20;;;18.00;90.40;;;;;;5066301;28;20032;-75
2022/05/25 03:26:12;;;;;;;3.72;2.40;;;18.00;90.50;;;;;;5066668;28;20103;-74
2022/05/25 03:28:38;;;;;;;3.80;2.42;;;17.90;90.50;;;;;;5067302;28;20048;-74
2022/05/25 03:31:04;;;;;;;4.13;2.60;;;17.90;90.50;;;;;;5055157;28;20029;-74
2022/05/25 03:33:30;;;;;;;3.95;2.67;;;17.80;90.50;;;;;;5064267;28;20036;-74
2022/05/25 03:35:56;;;;;;;4.40;2.88;;;17.90;90.60;;;;;;5066427;28;20035;-75
2022/05/25 03:38:22;;;;;;;3.97;2.60;;;17.90;90.60;;;;;;5059776;28;20020;-74
2022/05/25 03:40:47;;;;;;;4.65;2.70;;;17.90;90.60;;;;;;5065128;28;20393;-74
2022/05/25 03:43:17;;;;;;;4.72;2.45;;;17.90;90.70;;;;;;5064917;28;20508;-74
2022/05/25 03:45:42;;;;;;;3.78;2.30;;;17.90;90.70;;;;;;5057021;28;20033;-74
2022/05/25 03:48:08;;;;;;;3.67;2.33;;;17.90;90.70;;;;;;5046180;28;20451;-73
2022/05/25 03:50:35;;;;;;;4.60;2.78;;;17.90;90.90;;;;;;5044824;28;20053;-74
2022/05/25 03:53:01;;;;;;;4.25;2.40;;;17.80;90.60;;;;;;5053007;28;20078;-74
2022/05/25 03:55:26;;;;;;;4.35;2.55;;;17.90;90.60;;;;;;5081436;28;20021;-74
2022/05/25 03:57:52;;;;;;;3.78;2.38;;;17.80;90.60;;;;;;5064585;28;20259;-75
2022/05/25 04:00:18;;;;;;;4.30;2.70;;;17.90;90.60;;;;;;5068556;28;20029;-74
2022/05/25 04:02:46;;;;;;;4.68;2.20;;;17.90;90.50;;;;;;5063591;28;20025;-74
2022/05/25 04:05:12;;;;;;;3.55;2.40;;;17.90;90.50;;;;;;5065348;28;20115;-73
2022/05/25 04:07:38;;;;;;;3.67;2.10;;;17.90;90.40;;;;;;5064463;28;20029;-74
2022/05/25 04:10:05;;;;;;;4.10;2.50;;;17.90;90.30;;;;;;5064276;28;20032;-75
2022/05/25 04:12:32;;;;;;;3.60;2.28;;;18.00;90.30;;;;;;5053940;28;20025;-75
2022/05/25 04:14:58;;;;;;;3.92;2.30;;;18.00;90.20;;;;;;5063519;28;20036;-74
2022/05/25 04:17:23;;;;;;;3.33;2.22;;;18.00;90.20;;;;;;5063869;28;20078;-75
2022/05/25 04:19:50;;;;;;;4.05;2.50;;;18.00;90.20;;;;;;5065390;28;20029;-74
2022/05/25 04:22:16;;;;;;;4.20;2.40;;;17.90;90.30;;;;;;5079108;28;20035;-75
2022/05/25 04:24:41;;;;;;;3.70;2.30;;;17.90;90.40;;;;;;5063844;28;20143;-74
2022/05/25 04:27:07;;;;;;;4.07;2.45;;;17.90;90.70;;;;;;5064957;28;20576;-74
2022/05/25 04:29:36;;;;;;;4.68;2.70;;;17.90;90.50;;;;;;5080662;28;20032;-74
2022/05/25 04:32:02;;;;;;;4.95;3.10;;;17.90;90.50;;;;;;5063862;28;20028;-73
2022/05/25 04:34:27;;;;;;;4.47;2.70;;;17.90;90.40;;;;;;5063482;28;20033;-75
2022/05/25 04:36:53;;;;;;;5.20;2.83;;;17.90;90.50;;;;;;5065545;28;20070;-73
2022/05/25 04:39:18;;;;;;;4.22;2.70;;;17.90;90.60;;;;;;5049000;28;20032;-75
2022/05/25 04:41:44;;;;;;;4.32;2.83;;;17.90;90.60;;;;;;5041359;28;20033;-72
2022/05/25 04:44:09;;;;;;;4.68;2.83;;;17.90;90.60;;;;;;5045674;28;20033;-73
2022/05/25 04:46:35;;;;;;;4.70;3.00;;;17.80;90.60;;;;;;5044849;28;20055;-73
2022/05/25 04:49:00;;;;;;;3.65;2.40;;;17.80;90.60;;;;;;5043781;28;20560;-74
2022/05/25 04:51:27;;;;;;;3.58;2.33;;;17.80;90.50;;;;;;5066976;28;20040;-73
2022/05/25 04:53:53;;;;;;;4.07;2.40;;;17.80;90.50;;;;;;5057225;28;20017;-74
2022/05/25 04:59:03;;;;;;;3.97;2.55;;;17.90;90.60;;;;;;5052628;28;20083;-74
2022/05/25 05:01:30;;;;;;;3.78;2.50;;;17.90;90.50;;;;;;5058385;28;20024;-75
2022/05/25 05:03:56;;;;;;;3.85;2.50;;;17.90;90.40;;;;;;5057003;28;20052;-75
2022/05/25 05:06:21;;;;;;;3.67;2.30;;;17.90;90.40;;;;;;5055466;28;20656;-75
2022/05/25 05:08:47;;;;;;;3.67;2.20;;;17.90;90.30;;;;;;5044675;28;20036;-75
2022/05/25 05:11:16;;;;;;;4.05;2.40;;;18.00;90.30;;;;;;5045099;28;20025;-74
2022/05/25 05:13:42;;;;;;;4.07;2.50;;;18.00;90.30;;;;;;5049262;28;20036;-75
2022/05/25 05:16:11;;;;;;;3.78;2.40;;;18.00;90.20;;;;;;5065229;28;20124;-75
2022/05/25 05:18:37;;;;;;;4.35;2.60;;;18.00;90.30;;;;;;5056360;28;20051;-75
2022/05/25 05:21:03;;;;;;;4.32;2.70;;;17.90;90.30;;;;;;5085426;28;20021;-75
2022/05/25 05:23:28;;;;;;;4.32;2.58;;;17.90;90.20;;;;;;5069538;28;20035;-75
2022/05/25 05:25:54;;;;;;;4.90;3.08;;;18.00;90.30;;;;;;5062856;28;20187;-76
2022/05/25 05:28:24;;;;;;;4.07;2.75;;;17.90;90.30;;;;;;5049485;28;20029;-75
2022/05/25 05:30:52;;;;;;;4.65;2.67;;;17.90;90.30;;;;;;5049685;28;20643;-75
2022/05/25 05:33:18;;;;;;;4.47;2.60;;;17.90;90.40;;;;;;5048483;28;20025;-75
2022/05/25 05:35:45;;;;;;;3.78;2.40;;;17.90;90.40;;;;;;5049818;28;20548;-75
2022/05/25 05:38:12;;;;;;;4.97;2.38;;;17.90;90.40;;;;;;5065213;28;20040;-75
2022/05/25 05:40:38;;;;;;;4.60;3.00;;;17.90;90.40;;;;;;5048382;28;20033;-75
2022/05/25 05:43:04;;;;;;;4.32;2.40;;;17.90;90.40;;;;;;5049496;28;20029;-75
2022/05/25 05:45:35;;;;;;;4.05;2.58;;;17.90;90.30;;;;;;5048621;28;20025;-75
2022/05/25 05:48:18;;;;;;;5.05;2.90;;;17.90;90.30;;;;;;5047623;28;20044;-75
2022/05/25 05:50:46;;;;;;;4.15;2.63;;;17.90;90.30;;;;;;5063713;28;20033;-75
2022/05/25 05:53:12;;;;;;;4.15;2.42;;;17.90;90.30;;;;;;5046959;28;20031;-76
2022/05/25 05:55:40;;;;;;;4.22;2.60;;;17.90;90.30;;;;;;5049082;28;20033;-74
2022/05/25 05:58:06;;;;;;;4.53;2.80;;;17.90;90.40;;;;;;5047499;28;20021;-75
2022/05/25 06:00:31;;;;;;;4.38;2.47;;;17.90;90.30;;;;;;5064157;28;20032;-75
2022/05/25 06:02:57;;;;;;;3.95;2.58;;;17.90;90.30;;;;;;5048491;28;20084;-74
2022/05/25 06:05:22;;;;;;;4.45;2.50;;;17.90;90.20;;;;;;5063598;28;20029;-75
2022/05/25 06:07:48;;;;;;;3.88;2.20;;;18.00;90.20;;;;;;5047310;28;20386;-74
2022/05/25 06:10:13;;;;;;;3.80;2.40;;;18.00;90.20;;;;;;5063929;28;20197;-74
2022/05/25 06:12:39;;;;;;;4.32;2.63;;;18.00;90.10;;;;;;5048262;28;20040;-74
2022/05/25 06:20:39;;;;;;;4.53;2.80;;;18.00;90.10;;;;;;5028714;28;20037;-75
2022/05/25 06:23:05;;;;;;;4.07;2.40;;;18.00;90.10;;;;;;5046617;28;20040;-74
2022/05/25 06:25:30;;;;;;;4.18;2.47;;;18.00;90.10;;;;;;5047222;28;20086;-74
2022/05/25 06:27:56;;;;;;;4.05;2.30;;;18.00;90.10;;;;;;5047024;28;20025;-74
2022/05/25 06:30:22;;;;;;;3.80;2.30;;;18.00;90.10;;;;;;5047718;28;20029;-74
2022/05/25 06:32:47;;;;;;;3.88;2.55;;;18.00;90.10;;;;;;5046585;28;20061;-75
2022/05/25 06:35:13;;;;;;;4.45;2.50;;;18.00;90.00;;;;;;5046042;28;21011;-75
2022/05/25 06:37:39;;;;;;;3.47;2.20;;;18.00;90.00;;;;;;5047833;28;20044;-74
2022/05/25 06:40:06;;;;;;;4.03;2.55;;;18.00;90.00;;;;;;5046305;28;20514;-74
2022/05/25 06:42:31;;;;;;;4.18;2.63;;;18.00;90.00;;;;;;5046510;28;20021;-74
2022/05/25 06:44:57;;;;;;;3.95;2.40;;;18.00;90.00;;;;;;5046073;28;20477;-75
2022/05/25 06:47:22;;;;;;;3.33;2.33;;;18.00;90.00;;;;;;5046928;28;20479;-74
2022/05/25 06:49:52;;;;;;;4.88;2.67;;;18.00;90.00;;;;;;5045719;28;20032;-73
2022/05/25 06:52:18;;;;;;;3.90;2.50;;;18.00;89.90;;;;;;5046586;28;20497;-74
2022/05/25 06:54:43;;;;;;;3.85;2.50;;;18.10;90.00;;;;;;5046217;28;20067;-74
2022/05/25 06:57:09;;;;;;;4.28;2.55;;;18.10;89.90;;;;;;5043046;28;20033;-74
2022/05/25 06:59:34;;;;;;;3.80;2.42;;;18.10;90.00;;;;;;5045790;28;20031;-75
2022/05/25 07:02:00;;;;;;;4.18;2.42;;;18.10;89.90;;;;;;5051673;28;20079;-78
2022/05/25 07:04:25;;;;;;;4.82;3.05;;;18.20;89.70;;;;;;5051912;28;20037;-75
2022/05/25 07:06:52;;;;;;;5.45;2.80;;;18.20;89.60;;;;;;5053041;28;20083;-74
2022/05/25 07:09:17;;;;;;;3.75;2.40;;;18.20;89.40;;;;;;5053292;28;20474;-74
2022/05/25 07:11:43;;;;;;;5.50;3.10;;;18.30;89.10;;;;;;5051975;28;20029;-74
2022/05/25 07:14:10;;;;;;;5.47;3.03;;;18.30;89.00;;;;;;5051591;28;20116;-74
2022/05/25 07:16:36;;;;;;;4.32;2.60;;;18.30;88.80;;;;;;5052035;28;20020;-74
2022/05/25 07:19:02;;;;;;;4.97;2.90;;;18.30;88.80;;;;;;5052439;28;20393;-74
2022/05/25 07:21:31;;;;;;;5.78;3.30;;;18.30;88.80;;;;;;5053031;28;20056;-74
2022/05/25 07:23:58;;;;;;;4.38;2.70;;;18.30;88.90;;;;;;5052472;28;20032;-74
2022/05/25 07:26:25;;;;;;;4.88;3.13;;;18.30;88.90;;;;;;5051580;28;20036;-75
2022/05/25 07:28:51;;;;;;;4.82;3.03;;;18.30;88.90;;;;;;5051538;28;20079;-74
2022/05/25 07:31:42;;;;;;;4.93;2.88;;;18.30;88.80;;;;;;5051467;28;20029;-73
2022/05/25 07:34:14;;;;;;;5.00;3.30;;;18.30;88.80;;;;;;5052424;28;20025;-74
2022/05/25 07:36:41;;;;;;;6.93;3.50;;;18.30;88.90;;;;;;5051927;28;20110;-74
2022/05/25 07:39:13;;;;;;;4.97;3.13;;;18.30;88.80;;;;;;5052405;28;20029;-74
2022/05/25 07:41:49;;;;;;;5.53;3.55;;;18.30;88.80;;;;;;5051135;28;20066;-74
2022/05/25 07:44:19;;;;;;;5.50;3.50;;;18.30;88.80;;;;;;5050828;28;20270;-75
2022/05/25 07:46:45;;;;;;;5.30;3.40;;;18.30;88.90;;;;;;5052308;28;20028;-74
2022/05/25 07:49:10;;;;;;;5.60;3.58;;;18.30;88.90;;;;;;5052288;28;20456;-75
2022/05/25 07:51:36;;;;;;;5.85;3.83;;;18.30;88.80;;;;;;5051179;28;20024;-74
2022/05/25 07:54:03;;;;;;;6.30;4.03;;;18.30;88.90;;;;;;5050439;28;20068;-74
2022/05/25 07:56:35;;;;;;;5.75;3.70;;;18.40;88.90;;;;;;5050999;28;20116;-74
2022/05/25 07:59:03;;;;;;;7.05;4.15;;;18.40;88.70;;;;;;5052236;28;20132;-74
2022/05/25 08:07:06;;;;;;;6.15;3.90;;;18.50;88.30;;;;;;5052281;28;20059;-75
2022/05/25 08:09:32;;;;;;;6.20;4.10;;;18.50;88.20;;;;;;5050720;28;20079;-74
2022/05/25 08:11:59;;;;;;;7.18;4.32;;;18.50;88.10;;;;;;5050583;28;20036;-74
2022/05/25 08:14:25;;;;;;;5.82;3.72;;;18.50;88.20;;;;;;5051326;28;20520;-74
2022/05/25 08:16:51;;;;;;;6.78;3.78;;;18.50;88.30;;;;;;5051860;28;20052;-74
2022/05/25 08:19:17;;;;;;;5.93;3.67;;;18.40;88.40;;;;;;5051891;28;20043;-74
2022/05/25 08:21:43;;;;;;;5.88;3.72;;;18.40;88.50;;;;;;5050578;28;20025;-74
2022/05/25 08:24:08;;;;;;;6.57;3.97;;;18.40;88.50;;;;;;5050186;28;20115;-74
2022/05/25 08:26:34;;;;;;;5.97;3.70;;;18.40;88.40;;;;;;5050571;28;20039;-74
2022/05/25 08:28:59;;;;;;;6.35;4.05;;;18.40;88.40;;;;;;5051782;28;20037;-75
2022/05/25 08:31:25;;;;;;;5.95;3.67;;;18.40;88.40;;;;;;5050527;28;20439;-74
2022/05/25 08:33:50;;;;;;;6.32;3.92;;;18.50;88.30;;;;;;5050117;28;20037;-73
2022/05/25 08:36:16;;;;;;;6.95;4.50;;;18.50;88.20;;;;;;5051764;28;20032;-74
2022/05/25 08:38:41;;;;;;;5.53;3.83;;;18.50;88.20;;;;;;5050267;28;20051;-74
2022/05/25 08:41:07;;;;;;;6.72;4.47;;;18.50;88.10;;;;;;5051456;28;20118;-75
2022/05/25 08:43:41;;;;;;;7.07;4.82;;;18.50;88.10;;;;;;5051090;28;20520;-74
2022/05/25 08:46:13;;;;;;;6.90;4.72;;;18.50;88.10;;;;;;5067068;28;20029;-74
2022/05/25 08:48:40;;;;;;;7.03;5.00;;;18.60;88.00;;;;;;5051215;28;20032;-74
2022/05/25 08:51:19;;;;;;;6.93;4.75;;;18.60;87.90;;;;;;5050215;28;20068;-74
2022/05/25 08:53:45;;;;;;;6.75;4.70;;;18.60;87.90;;;;;;5050908;28;20034;-73
2022/05/25 08:56:27;;;;;;;7.57;5.15;;;18.60;88.00;;;;;;5050378;28;20021;-74
2022/05/25 08:59:10;;;;;;;7.50;4.90;;;18.50;88.50;;;;;;5051688;28;20367;-74
2022/05/25 09:02:02;;;;;;;6.35;4.50;;;18.50;87.90;;;;;;5051559;28;20524;-74
2022/05/25 09:04:31;;;;;;;7.45;5.05;;;18.60;87.80;;;;;;5050627;28;20094;-74
2022/05/25 09:07:35;;;;;;;7.07;4.90;;;18.70;87.70;;;;;;5066728;28;20173;-75
2022/05/25 09:10:03;;;;;;;7.55;4.85;;;18.70;87.40;;;;;;5051160;28;20056;-74
2022/05/25 09:12:44;;;;;;;6.32;4.22;;;18.70;87.30;;;;;;5049866;28;20021;-74
2022/05/25 09:15:15;;;;;;;6.53;4.75;;;18.70;87.20;;;;;;5050869;28;20029;-74
2022/05/25 09:18:04;;;;;;;6.88;4.82;;;18.70;87.30;;;;;;5051122;28;20052;-74
2022/05/25 09:20:37;;;;;;;6.65;4.50;;;18.70;87.30;;;;;;5050049;28;20497;-74
2022/05/25 09:23:03;;;;;;;6.32;4.45;;;18.70;87.30;;;;;;5050900;28;20506;-74
2022/05/25 09:25:30;;;;;;;7.00;4.95;;;18.70;87.30;;;;;;5049650;28;20028;-73
2022/05/25 09:28:07;;;;;;;6.13;4.35;;;18.70;87.40;;;;;;5049654;28;20128;-73
2022/05/25 09:30:36;;;;;;;6.60;4.47;;;18.70;87.40;;;;;;5051322;28;20034;-74
2022/05/25 09:33:11;;;;;;;6.50;4.70;;;18.60;87.40;;;;;;5049333;28;20086;-74
2022/05/25 09:35:40;;;;;;;6.88;4.60;;;18.70;87.60;;;;;;5049812;28;20024;-74
2022/05/25 09:38:13;;;;;;;6.93;4.72;;;18.70;87.60;;;;;;5049681;28;20029;-74
2022/05/25 09:40:45;;;;;;;6.63;4.70;;;18.70;87.60;;;;;;5050986;28;20398;-74
2022/05/25 09:43:12;;;;;;;;;;;18.70;87.50;;;;;;5049980;28;20056;-73
2022/05/25 09:45:54;;;;;;;7.40;4.85;;;18.70;87.50;;;;;;5050960;28;19926;-74
2022/05/25 09:48:22;;;;;;;7.53;4.90;;;18.70;87.50;;;;;;5049685;28;20086;-74
2022/05/25 09:50:54;;;;;;;6.28;4.63;;;18.80;87.50;;;;;;5066490;28;20104;-74
2022/05/25 09:53:23;;;;;;;6.40;4.43;;;18.80;87.30;;;;;;5049238;28;20025;-74
2022/05/25 09:56:15;;;;;;;6.57;4.80;;;18.80;87.20;;;;;;5051152;28;20494;-74
2022/05/25 09:58:47;;;;;;;6.90;4.60;;;18.80;87.00;;;;;;5049964;28;20021;-74
2022/05/25 10:01:30;;;;;;;;;;;18.90;86.80;;;;;;5052155;28;20036;-74
2022/05/25 10:03:56;;;;;;;6.07;4.13;;;18.90;86.60;;;;;;5049339;28;20035;-74
2022/05/25 10:06:27;;;;;;;5.93;4.10;;;18.90;86.40;;;;;;5052925;28;20021;-75
2022/05/25 10:09:22;;;;;;;6.18;4.22;;;19.00;86.30;;;;;;5054001;28;20024;-74
2022/05/25 10:11:52;;;;;;;6.00;4.20;;;19.00;86.10;;;;;;5043831;28;20112;-74
2022/05/25 10:14:24;;;;;;;5.82;4.10;;;19.00;86.10;;;;;;5052173;28;20048;-73
2022/05/25 10:16:50;;;;;;;6.45;4.40;;;19.00;86.70;;;;;;5052927;28;20509;-75
2022/05/25 10:19:19;;;;;;;6.00;4.28;;;18.90;86.30;;;;;;5052729;28;20035;-74
2022/05/25 10:21:52;;;;;;;6.47;4.05;;;18.90;86.50;;;;;;5052923;28;20108;-76
2022/05/25 10:24:27;;;;;;;5.90;4.10;;;18.90;86.70;;;;;;5049127;28;20083;-75
2022/05/25 10:26:59;;;;;;;5.97;4.10;;;18.90;86.80;;;;;;5033685;28;20071;-74
2022/05/25 10:38:26;;;;;;;5.68;3.88;;;18.90;86.90;;;;;;5033899;28;20079;-74
2022/05/25 10:40:52;;;;;;;5.50;3.75;;;18.90;86.90;;;;;;5032302;28;20055;-74
2022/05/25 10:43:28;;;;;;;5.60;3.75;;;18.90;86.90;;;;;;5032171;28;20022;-75
2022/05/25 10:45:55;;;;;;;5.75;3.72;;;18.90;86.90;;;;;;5033469;28;20032;-75
2022/05/25 10:48:50;;;;;;;6.30;4.10;;;18.80;86.90;;;;;;5033434;28;20429;-74
2022/05/25 10:51:28;;;;;;;6.00;3.95;;;18.80;86.80;;;;;;5033501;28;20034;-74
2022/05/25 10:57:31;;;;;;;5.75;3.70;;;18.80;87.00;;;;;;5032027;28;20508;-74
2022/05/25 11:00:12;;;;;;;5.95;3.75;;;18.80;86.90;;;;;;5061539;28;20068;-75
2022/05/25 11:03:15;;;;;;;6.88;4.45;;;18.90;86.90;;;;;;5053062;28;20056;-74
2022/05/25 11:05:48;;;;;;;5.43;3.38;;;18.90;86.70;;;;;;5053046;28;20056;-75
2022/05/25 11:08:28;;;;;;;4.95;3.55;;;18.90;87.10;;;;;;5051935;28;20116;-75
2022/05/25 11:11:23;;;;;;;5.25;3.60;;;18.90;86.50;;;;;;5051882;28;20112;-74
2022/05/25 11:14:02;;;;;;;6.10;3.28;;;18.90;86.50;;;;;;5052189;28;20401;-75
2022/05/25 11:16:49;;;;;;;5.20;3.35;;;18.90;86.60;;;;;;5052937;28;20486;-74
2022/05/25 11:19:33;;;;;;;6.05;3.60;;;18.80;86.80;;;;;;5050555;28;20025;-74
2022/05/25 11:22:11;;;;;;;5.05;3.35;;;18.80;87.00;;;;;;5051906;28;20017;-75
2022/05/25 11:24:36;;;;;;;5.05;3.33;;;18.80;87.10;;;;;;5051204;28;20454;-74
2022/05/25 11:27:19;;;;;;;4.95;3.40;;;18.80;87.30;;;;;;5052774;28;20056;-74
2022/05/25 11:30:07;;;;;;;5.68;3.75;;;18.70;87.50;;;;;;5051438;28;20513;-74
2022/05/25 11:33:06;;;;;;;6.18;3.85;;;18.70;87.60;;;;;;5051437;28;20035;-74
2022/05/25 11:35:48;;;;;;;5.20;3.25;;;18.70;87.80;;;;;;5051244;28;20049;-74
2022/05/25 11:38:28;;;;;;;5.75;3.53;;;18.70;87.80;;;;;;5052535;28;20024;-74
2022/05/25 11:41:06;;;;;;;5.40;3.75;;;18.70;88.00;;;;;;5051367;28;20031;-74
2022/05/25 11:43:43;;;;;;;4.85;3.28;;;18.60;88.00;;;;;;5052251;28;20521;-73
2022/05/25 11:46:20;;;;;;;5.00;3.40;;;18.60;88.10;;;;;;5051245;28;20123;-75
2022/05/25 11:49:07;;;;;;;5.25;3.40;;;18.60;88.20;;;;;;5050959;28;20028;-75
2022/05/25 11:51:46;;;;;;;5.57;3.88;;;18.60;88.40;;;;;;5052583;28;20108;-74
2022/05/25 11:54:41;;;;;;;5.38;3.53;;;18.60;89.00;;;;;;5050611;28;20070;-75
2022/05/25 11:57:30;;;;;;;5.43;3.63;;;18.60;88.50;;;;;;5052381;28;20405;-75
2022/05/25 12:00:12;;;;;;;5.20;3.40;;;18.60;88.40;;;;;;5052240;28;20774;-74
2022/05/25 12:02:37;;;;;;;5.03;3.30;;;18.60;88.20;;;;;;5050883;28;20045;-74
2022/05/25 12:05:17;;;;;;;4.90;3.20;;;18.70;88.10;;;;;;5050568;28;20541;-74
2022/05/25 12:08:19;;;;;;;4.82;3.13;;;18.70;88.00;;;;;;5050861;28;20104;-75
2022/05/25 12:10:47;;;;;;;5.15;3.30;;;18.70;87.90;;;;;;5050793;28;20454;-75
2022/05/25 12:13:22;;;;;;;5.55;3.47;;;18.70;87.90;;;;;;5066911;28;20024;-74
2022/05/25 12:16:06;;;;;;;5.07;3.40;;;18.70;88.00;;;;;;5067346;28;20032;-76
2022/05/25 12:18:41;;;;;;;4.88;3.08;;;18.70;88.10;;;;;;5051940;28;20514;-74
2022/05/25 12:21:13;;;;;;;5.07;3.13;;;18.60;88.20;;;;;;5051991;28;20507;-74
2022/05/25 12:24:11;;;;;;;;;;;18.60;88.30;;;;;;5050364;28;20420;-75
2022/05/25 12:26:38;;;;;;;4.70;2.85;;;18.60;88.40;;;;;;5007547;28;20364;-75
2022/05/25 12:29:34;;;;;;;5.05;3.25;;;18.60;88.50;;;;;;5050903;28;20143;-78
2022/05/25 12:32:00;;;;;;;4.95;3.50;;;18.60;88.50;;;;;;5067112;28;20032;-75
2022/05/25 12:34:34;;;;;;;5.00;3.10;;;18.60;88.60;;;;;;5051198;28;20523;-75
2022/05/25 12:37:02;;;;;;;5.07;3.35;;;18.60;88.50;;;;;;5051658;28;20450;-75
2022/05/25 12:39:42;;;;;;;4.68;3.30;;;18.60;88.60;;;;;;5051480;28;20100;-75
2022/05/25 12:42:23;;;;;;;5.13;3.30;;;18.60;88.60;;;;;;5050366;28;20025;-75
2022/05/25 12:50:47;;;;;;;5.45;3.50;;;18.50;88.70;;;;;;5051637;28;20094;-74
2022/05/25 12:53:38;;;;;;;5.60;3.22;;;18.50;88.70;;;;;;5050045;28;20090;-73
2022/05/25 12:56:32;;;;;;;5.50;3.42;;;18.60;88.80;;;;;;5050202;28;20032;-78
2022/05/25 12:59:09;;;;;;;5.15;3.30;;;18.60;88.60;;;;;;5050328;28;20044;-74
2022/05/25 13:01:38;;;;;;;4.70;2.95;;;18.60;88.40;;;;;;5052667;28;20075;-74
2022/05/25 13:04:17;;;;;;;5.10;3.20;;;18.60;88.20;;;;;;5049403;28;20029;-74
2022/05/25 13:06:43;;;;;;;5.97;3.30;;;18.70;88.10;;;;;;5050002;28;20025;-74
2022/05/25 13:09:17;;;;;;;4.50;3.00;;;18.70;88.10;;;;;;5050093;28;20040;-74
2022/05/25 13:11:50;;;;;;;4.93;3.03;;;18.70;88.10;;;;;;5051299;28;20028;-74
2022/05/25 13:14:18;;;;;;;5.05;3.20;;;18.60;88.00;;;;;;5050655;28;20033;-74
2022/05/25 13:16:45;;;;;;;4.40;3.08;;;18.60;88.10;;;;;;5050127;28;20024;-74
2022/05/25 13:19:30;;;;;;;5.60;3.10;;;18.60;88.20;;;;;;5045119;28;20100;-74
2022/05/25 13:22:02;;;;;;;5.28;2.90;;;18.60;88.30;;;;;;5050595;28;20025;-74
2022/05/25 13:25:05;;;;;;;5.30;3.03;;;18.60;88.30;;;;;;5050702;28;20025;-74
2022/05/25 13:27:53;;;;;;;4.45;2.60;;;18.60;88.20;;;;;;5051079;28;20382;-74
2022/05/25 13:30:58;;;;;;;5.55;3.17;;;18.50;88.30;;;;;;5066518;28;20405;-74
2022/05/25 13:33:27;;;;;;;4.55;2.85;;;18.50;88.40;;;;;;5049415;28;20499;-74
2022/05/25 13:36:04;;;;;;;4.50;2.85;;;18.50;88.60;;;;;;5051274;28;20053;-76
2022/05/25 13:38:54;;;;;;;4.38;2.83;;;18.50;88.60;;;;;;5034926;28;20458;-75
2022/05/25 13:41:26;;;;;;;5.00;2.90;;;18.50;88.50;;;;;;5034731;28;20064;-74
2022/05/25 13:43:54;;;;;;;4.57;3.00;;;18.50;88.30;;;;;;5033123;28;20029;-70
2022/05/25 13:46:54;;;;;;;4.82;2.70;;;18.50;88.30;;;;;;5034493;28;20025;-71
2022/05/25 13:49:47;;;;;;;4.20;2.75;;;18.50;88.40;;;;;;5034448;28;20034;-74